createdAt,value
2018-11-11T00:00:43.419Z,93838.12
2018-11-11T00:03:12.820Z,93847.01
2018-11-11T00:05:42.024Z,93843.39
2018-11-11T00:08:11.288Z,93847.67
2018-11-11T00:10:40.828Z,93847.80
2018-11-11T00:13:11.287Z,93849.87
2018-11-11T00:15:40.645Z,93852.67
2018-11-11T00:18:10.137Z,93851.52
2018-11-11T00:20:40.076Z,93849.55
2018-11-11T00:23:09.919Z,93848.59
2018-11-11T00:25:39.145Z,93852.50
2018-11-11T00:28:08.778Z,93859.42
2018-11-11T00:30:38.209Z,93852.42
2018-11-11T00:33:08.075Z,93852.86
2018-11-11T00:35:37.968Z,93854.86
2018-11-11T00:38:07.434Z,93852.25
2018-11-11T00:40:37.398Z,93854.15
2018-11-11T00:43:07.132Z,93852.38
2018-11-11T00:45:36.567Z,93851.73
2018-11-11T00:48:05.988Z,93854.86
2018-11-11T00:50:36.132Z,93853.84
2018-11-11T00:53:06.110Z,93850.22
2018-11-11T00:55:40.457Z,93854.60
2018-11-11T00:58:09.822Z,93854.42
2018-11-11T01:00:39.253Z,93850.45
2018-11-11T01:03:08.555Z,93840.05
2018-11-11T01:05:38.070Z,93839.41
2018-11-11T01:08:08.372Z,93841.72
2018-11-11T01:10:37.726Z,93840.80
2018-11-11T01:13:07.251Z,93828.41
2018-11-11T01:15:36.711Z,93840.39
2018-11-11T01:18:06.090Z,93840.20
2018-11-11T01:20:35.490Z,93843.51
2018-11-11T01:23:05.020Z,93847.23
2018-11-11T01:25:34.572Z,93854.86
2018-11-11T01:28:03.950Z,93856.72
2018-11-11T01:30:33.406Z,93860.13
2018-11-11T01:33:02.900Z,93862.69
2018-11-11T01:35:32.911Z,93858.13
2018-11-11T01:38:02.385Z,93856.53
2018-11-11T01:40:32.542Z,93863.00
2018-11-11T01:43:01.922Z,93865.22
2018-11-11T01:45:31.554Z,93859.51
2018-11-11T01:48:01.739Z,93861.86
2018-11-11T01:50:31.018Z,93854.73
2018-11-11T01:53:00.436Z,93859.99
2018-11-11T01:55:29.936Z,93862.42
2018-11-11T01:57:59.403Z,93861.14
2018-11-11T02:00:28.987Z,93868.08
2018-11-11T02:02:58.253Z,93871.28
2018-11-11T02:05:27.829Z,93867.03
2018-11-11T02:07:58.400Z,93876.44
2018-11-11T02:10:27.879Z,93873.95
2018-11-11T02:12:57.318Z,93872.90
2018-11-11T02:15:26.640Z,93873.48
2018-11-11T02:17:55.883Z,93864.89
2018-11-11T02:20:25.564Z,93861.90
2018-11-11T02:22:54.842Z,93853.34
2018-11-11T02:25:24.256Z,93857.03
2018-11-11T02:27:53.567Z,93864.14
2018-11-11T02:30:22.991Z,93869.27
2018-11-11T02:32:52.395Z,93870.20
2018-11-11T02:35:21.909Z,93882.41
2018-11-11T02:37:51.244Z,93887.42
2018-11-11T02:40:21.012Z,93883.25
2018-11-11T02:42:51.496Z,93884.36
2018-11-11T02:45:21.200Z,93880.42
2018-11-11T02:47:51.465Z,93885.38
2018-11-11T02:50:20.922Z,93891.56
2018-11-11T02:52:50.354Z,93888.73
2018-11-11T02:55:19.663Z,93891.86
2018-11-11T02:57:49.251Z,93884.72
2018-11-11T03:00:20.004Z,93896.98
2018-11-11T03:02:49.801Z,93901.87
2018-11-11T03:05:19.780Z,93903.22
2018-11-11T03:07:49.379Z,93901.77
2018-11-11T03:10:19.275Z,93900.94
2018-11-11T03:12:50.056Z,93903.22
2018-11-11T03:15:19.701Z,93900.31
2018-11-11T03:17:49.591Z,93902.42
2018-11-11T03:20:19.366Z,93904.75
2018-11-11T03:22:48.614Z,93910.56
2018-11-11T03:25:18.585Z,93904.70
2018-11-11T03:27:47.973Z,93920.63
2018-11-11T03:30:18.258Z,93922.88
2018-11-11T03:32:48.357Z,93921.38
2018-11-11T03:35:17.844Z,93921.63
2018-11-11T03:37:47.343Z,93926.10
2018-11-11T03:40:18.155Z,93926.07
2018-11-11T03:42:47.832Z,93930.26
2018-11-11T03:45:18.464Z,93924.39
2018-11-11T03:47:48.669Z,93935.47
2018-11-11T03:50:18.037Z,93936.98
2018-11-11T03:52:47.524Z,93940.80
2018-11-11T03:55:17.218Z,93959.76
2018-11-11T03:57:46.581Z,93958.73
2018-11-11T04:00:16.678Z,93963.34
2018-11-11T04:02:46.943Z,93967.70
2018-11-11T04:05:17.461Z,93969.76
2018-11-11T04:07:46.900Z,93965.02
2018-11-11T04:10:17.476Z,93964.27
2018-11-11T04:12:47.247Z,93964.68
2018-11-11T04:15:17.964Z,93966.70
2018-11-11T04:17:47.475Z,93973.84
2018-11-11T04:20:18.130Z,93972.08
2018-11-11T04:22:47.534Z,93971.83
2018-11-11T04:25:17.788Z,93980.42
2018-11-11T04:27:47.120Z,93986.59
2018-11-11T04:30:16.741Z,93995.01
2018-11-11T04:32:46.019Z,93991.31
2018-11-11T04:35:15.306Z,93989.86
2018-11-11T04:37:44.700Z,93980.04
2018-11-11T04:40:14.382Z,93978.69
2018-11-11T04:42:43.742Z,93989.27
2018-11-11T04:45:16.275Z,93986.44
2018-11-11T04:47:46.354Z,93977.97
2018-11-11T04:50:16.725Z,93989.09
2018-11-11T04:52:46.765Z,93984.35
2018-11-11T04:55:16.086Z,93992.98
2018-11-11T04:57:46.215Z,93999.11
2018-11-11T05:00:16.074Z,94002.86
2018-11-11T05:02:45.219Z,94011.91
2018-11-11T05:05:15.194Z,94013.28
2018-11-11T05:07:44.777Z,94011.30
2018-11-11T05:10:14.425Z,94013.94
2018-11-11T05:12:43.836Z,94020.76
2018-11-11T05:15:13.946Z,94021.22
2018-11-11T05:17:43.756Z,94022.12
2018-11-11T05:20:13.702Z,94027.69
2018-11-11T05:22:43.685Z,94021.48
2018-11-11T05:25:14.535Z,94025.56
2018-11-11T05:27:44.369Z,94029.92
2018-11-11T05:30:14.364Z,94031.84
2018-11-11T05:32:44.015Z,94027.14
2018-11-11T05:35:14.528Z,94034.36
2018-11-11T05:37:44.171Z,94026.72
2018-11-11T05:40:14.143Z,94025.05
2018-11-11T05:42:44.205Z,94026.75
2018-11-11T05:45:14.708Z,94022.64
2018-11-11T05:47:47.755Z,94028.88
2018-11-11T05:50:17.629Z,94039.13
2018-11-11T05:52:47.735Z,94058.51
2018-11-11T05:55:17.139Z,94054.47
2018-11-11T05:57:46.536Z,94060.75
2018-11-11T06:00:17.173Z,94061.38
2018-11-11T06:02:46.587Z,94054.77
2018-11-11T06:05:16.477Z,94049.33
2018-11-11T06:07:45.906Z,94044.03
2018-11-11T06:10:15.822Z,94044.32
2018-11-11T06:12:45.197Z,94050.83
2018-11-11T06:15:15.108Z,94058.89
2018-11-11T06:17:44.659Z,94072.00
2018-11-11T06:20:15.237Z,94083.77
2018-11-11T06:22:44.692Z,94094.06
2018-11-11T06:25:14.064Z,94092.27
2018-11-11T06:27:44.070Z,94092.08
2018-11-11T06:30:13.939Z,94095.85
2018-11-11T06:32:43.490Z,94105.56
2018-11-11T06:35:12.987Z,94107.30
2018-11-11T06:37:42.548Z,94101.17
2018-11-11T06:40:13.160Z,94110.92
2018-11-11T06:42:44.041Z,94113.98
2018-11-11T06:45:15.534Z,94108.98
2018-11-11T06:47:45.481Z,94107.61
2018-11-11T06:50:16.314Z,94110.64
2018-11-11T06:52:45.735Z,94105.39
2018-11-11T06:55:15.079Z,94109.42
2018-11-11T06:57:44.794Z,94112.62
2018-11-11T07:00:15.314Z,94109.70
2018-11-11T07:02:55.778Z,94111.56
2018-11-11T07:05:25.350Z,94114.98
2018-11-11T07:07:54.814Z,94104.50
2018-11-11T07:10:24.860Z,94103.01
2018-11-11T07:12:54.506Z,94095.40
2018-11-11T07:15:24.939Z,94093.54
2018-11-11T07:17:54.816Z,94098.78
2018-11-11T07:20:24.536Z,94103.66
2018-11-11T07:22:54.765Z,94101.42
2018-11-11T07:25:24.601Z,94110.93
2018-11-11T07:27:55.216Z,94111.63
2018-11-11T07:30:25.383Z,94121.08
2018-11-11T07:32:54.682Z,94121.11
2018-11-11T07:35:24.038Z,94121.86
2018-11-11T07:37:54.474Z,94119.95
2018-11-11T07:40:23.828Z,94113.94
2018-11-11T07:42:53.175Z,94110.96
2018-11-11T07:45:22.653Z,94112.97
2018-11-11T07:47:52.026Z,94106.45
2018-11-11T07:50:21.520Z,94107.38
2018-11-11T07:52:51.790Z,94100.31
2018-11-11T07:55:21.374Z,94094.72
2018-11-11T07:57:50.865Z,94093.46
2018-11-11T08:00:20.188Z,94081.84
2018-11-11T08:02:49.992Z,94083.27
2018-11-11T08:05:26.220Z,94090.98
2018-11-11T08:07:55.772Z,94089.48
2018-11-11T08:10:36.437Z,94088.70
2018-11-11T08:13:06.046Z,94088.00
2018-11-11T08:15:37.879Z,94090.58
2018-11-11T08:18:07.380Z,94093.62
2018-11-11T08:20:37.991Z,94089.08
2018-11-11T08:23:07.540Z,94092.66
2018-11-11T08:25:36.967Z,94097.91
2018-11-11T08:28:07.200Z,94097.53
2018-11-11T08:30:36.824Z,94104.63
2018-11-11T08:33:07.059Z,94109.80
2018-11-11T08:35:36.325Z,94116.02
2018-11-11T08:38:05.615Z,94117.46
2018-11-11T08:40:35.044Z,94118.23
2018-11-11T08:43:04.225Z,94124.55
2018-11-11T08:45:34.572Z,94123.48
2018-11-11T08:48:03.959Z,94125.02
2018-11-11T08:50:33.227Z,94129.99
2018-11-11T08:53:02.594Z,94126.50
2018-11-11T08:55:32.611Z,94130.77
2018-11-11T08:58:03.372Z,94139.47
2018-11-11T09:00:33.520Z,94133.21
2018-11-11T09:03:03.538Z,94132.65
2018-11-11T09:05:33.288Z,94140.94
2018-11-11T09:08:03.093Z,94141.54
2018-11-11T09:10:32.493Z,94146.26
2018-11-11T09:13:05.739Z,94149.20
2018-11-11T09:15:35.197Z,94157.17
2018-11-11T09:18:04.736Z,94135.72
2018-11-11T09:20:34.653Z,94158.60
2018-11-11T09:23:03.973Z,94153.50
2018-11-11T09:25:33.571Z,94152.08
2018-11-11T09:28:02.810Z,94153.75
2018-11-11T09:30:32.597Z,94157.31
2018-11-11T09:33:02.067Z,94160.30
2018-11-11T09:35:31.511Z,94161.74
2018-11-11T09:38:00.764Z,94159.20
2018-11-11T09:40:31.204Z,94149.14
2018-11-11T09:43:00.600Z,94153.17
2018-11-11T09:45:30.140Z,94154.50
2018-11-11T09:47:59.635Z,94150.09
2018-11-11T09:50:29.934Z,94150.15
2018-11-11T09:52:59.510Z,94148.16
2018-11-11T09:55:30.014Z,94149.55
2018-11-11T09:57:59.433Z,94151.39
2018-11-11T10:00:28.859Z,94148.73
2018-11-11T10:05:05.840Z,94147.69
2018-11-11T10:07:50.209Z,94151.20
2018-11-11T10:10:24.652Z,94159.63
2018-11-11T10:13:02.746Z,94167.64
2018-11-11T10:15:38.979Z,94166.61
2018-11-11T10:18:20.197Z,94164.19
2018-11-11T10:21:00.588Z,94172.90
2018-11-11T10:23:44.566Z,94170.20
2018-11-11T10:26:21.032Z,94164.61
2018-11-11T10:28:59.015Z,94160.52
2018-11-11T10:31:34.239Z,94159.45
2018-11-11T10:34:08.378Z,94160.48
2018-11-11T10:36:43.081Z,94153.47
2018-11-11T10:39:17.342Z,94145.73
2018-11-11T10:42:26.903Z,94145.75
2018-11-11T10:45:03.967Z,94131.98
2018-11-11T10:47:37.803Z,94140.03
2018-11-11T10:50:10.132Z,94139.65
2018-11-11T10:52:39.751Z,94132.07
2018-11-11T10:55:09.619Z,94131.75
2018-11-11T10:57:40.193Z,94129.09
2018-11-11T11:02:17.145Z,94132.27
2018-11-11T11:04:51.474Z,94133.65
2018-11-11T11:07:21.147Z,94135.33
2018-11-11T11:09:51.831Z,94131.19
2018-11-11T11:12:21.859Z,94131.20
2018-11-11T11:14:51.417Z,94124.80
2018-11-11T11:17:20.851Z,94124.11
2018-11-11T11:19:51.137Z,94126.33
2018-11-11T11:22:20.993Z,94128.33
2018-11-11T11:24:50.648Z,94137.27
2018-11-11T11:27:20.242Z,94127.20
2018-11-11T11:29:50.066Z,94120.98
2018-11-11T11:32:19.679Z,94110.41
2018-11-11T11:34:50.057Z,94105.09
2018-11-11T11:37:19.458Z,94098.58
2018-11-11T11:39:48.794Z,94093.62
2018-11-11T11:42:18.252Z,94086.81
2018-11-11T11:44:47.606Z,94085.75
2018-11-11T11:47:17.840Z,94089.95
2018-11-11T11:49:47.132Z,94088.90
2018-11-11T11:52:16.612Z,94083.42
2018-11-11T11:54:47.166Z,94086.36
2018-11-11T11:57:17.086Z,94085.27
2018-11-11T11:59:46.450Z,94080.16
2018-11-11T12:02:15.664Z,94078.33
2018-11-11T12:04:44.963Z,94073.93
2018-11-11T12:07:14.389Z,94072.25
2018-11-11T12:09:43.945Z,94073.35
2018-11-11T12:12:13.376Z,94075.70
2018-11-11T12:14:42.919Z,94078.41
2018-11-11T12:17:13.594Z,94077.23
2018-11-11T12:19:44.615Z,94074.15
2018-11-11T12:22:14.011Z,94074.23
2018-11-11T12:24:43.539Z,94073.84
2018-11-11T12:27:12.822Z,94075.97
2018-11-11T12:29:42.154Z,94075.08
2018-11-11T12:32:11.524Z,94074.14
2018-11-11T12:34:40.905Z,94079.78
2018-11-11T12:37:10.393Z,94076.84
2018-11-11T12:39:40.234Z,94074.50
2018-11-11T12:42:09.700Z,94069.05
2018-11-11T12:44:40.271Z,94066.52
2018-11-11T12:47:10.148Z,94057.50
2018-11-11T12:49:39.601Z,94061.94
2018-11-11T12:52:08.997Z,94057.89
2018-11-11T12:54:38.373Z,94056.22
2018-11-11T12:57:08.046Z,94062.55
2018-11-11T12:59:37.918Z,94062.22
2018-11-11T13:02:07.604Z,94062.59
2018-11-11T13:04:37.191Z,94064.59
2018-11-11T13:07:07.416Z,94067.07
2018-11-11T13:09:36.917Z,94067.61
2018-11-11T13:12:07.021Z,94070.16
2018-11-11T13:14:36.478Z,94068.53
2018-11-11T13:17:05.860Z,94068.30
2018-11-11T13:19:35.321Z,94076.00
2018-11-11T13:22:04.917Z,94068.82
2018-11-11T13:24:34.179Z,94066.91
2018-11-11T13:27:03.536Z,94069.16
2018-11-11T13:29:33.246Z,94068.06
2018-11-11T13:32:03.174Z,94069.28
2018-11-11T13:34:32.849Z,94076.33
2018-11-11T13:37:02.445Z,94076.11
2018-11-11T13:39:31.843Z,94069.16
2018-11-11T13:42:01.589Z,94076.15
2018-11-11T13:44:31.338Z,94083.47
2018-11-11T13:47:00.806Z,94084.36
2018-11-11T13:49:30.267Z,94084.63
2018-11-11T13:52:00.063Z,94084.05
2018-11-11T13:54:29.740Z,94096.59
2018-11-11T13:56:59.202Z,94100.91
2018-11-11T13:59:28.642Z,94108.63
2018-11-11T14:01:58.995Z,94114.99
2018-11-11T14:04:28.390Z,94111.31
2018-11-11T14:06:57.882Z,94114.95
2018-11-11T14:09:27.243Z,94112.31
2018-11-11T14:11:56.607Z,94115.20
2018-11-11T14:14:27.324Z,94123.39
2018-11-11T14:16:56.545Z,94118.13
2018-11-11T14:19:26.094Z,94123.64
2018-11-11T14:21:55.857Z,94126.20
2018-11-11T14:24:26.031Z,94137.30
2018-11-11T14:26:55.582Z,94136.44
2018-11-11T14:29:26.242Z,94137.70
2018-11-11T14:31:55.913Z,94140.66
2018-11-11T14:34:25.584Z,94144.34
2018-11-11T14:36:54.942Z,94142.34
2018-11-11T14:39:24.322Z,94146.67
2018-11-11T14:41:53.867Z,94151.05
2018-11-11T14:44:23.391Z,94147.98
2018-11-11T14:46:53.333Z,94144.57
2018-11-11T14:49:22.888Z,94146.66
2018-11-11T14:51:52.279Z,94157.97
2018-11-11T14:54:23.124Z,94149.88
2018-11-11T14:56:52.555Z,94150.13
2018-11-11T14:59:22.042Z,94158.57
2018-11-11T15:01:51.513Z,94160.20
2018-11-11T15:04:21.033Z,94161.55
2018-11-11T15:06:51.511Z,94163.47
2018-11-11T15:09:20.941Z,94166.30
2018-11-11T15:11:50.531Z,94177.91
2018-11-11T15:14:20.134Z,94178.31
2018-11-11T15:16:49.586Z,94184.09
2018-11-11T15:19:19.184Z,94178.29
2018-11-11T15:21:48.612Z,94185.42
2018-11-11T15:24:18.023Z,94193.83
2018-11-11T15:26:47.759Z,94191.34
2018-11-11T15:29:17.219Z,94188.84
2018-11-11T15:31:47.453Z,94192.37
2018-11-11T15:34:18.269Z,94196.80
2018-11-11T15:36:47.744Z,94202.92
2018-11-11T15:39:17.795Z,94206.95
2018-11-11T15:41:47.223Z,94211.48
2018-11-11T15:44:16.712Z,94214.16
2018-11-11T15:46:46.273Z,94219.23
2018-11-11T15:49:16.079Z,94229.47
2018-11-11T15:51:45.469Z,94228.66
2018-11-11T15:54:18.257Z,94233.00
2018-11-11T15:56:47.719Z,94236.63
2018-11-11T15:59:17.348Z,94235.39
2018-11-11T16:01:46.920Z,94241.69
2018-11-11T16:04:16.319Z,94239.77
2018-11-11T16:06:45.791Z,94251.33
2018-11-11T16:09:15.278Z,94253.52
2018-11-11T16:11:44.902Z,94254.33
2018-11-11T16:14:15.397Z,94258.13
2018-11-11T16:16:45.892Z,94256.44
2018-11-11T16:19:15.940Z,94262.92
2018-11-11T16:21:45.378Z,94261.49
2018-11-11T16:24:15.867Z,94265.36
2018-11-11T16:26:45.219Z,94272.54
2018-11-11T16:29:14.770Z,94276.33
2018-11-11T16:31:44.821Z,94279.77
2018-11-11T16:34:14.384Z,94279.97
2018-11-11T16:36:45.873Z,94282.75
2018-11-11T16:39:15.431Z,94286.20
2018-11-11T16:41:45.047Z,94286.73
2018-11-11T16:44:15.465Z,94286.84
2018-11-11T16:46:46.740Z,94294.05
2018-11-11T16:49:17.306Z,94290.95
2018-11-11T16:51:49.678Z,94295.45
2018-11-11T16:54:19.564Z,94303.50
2018-11-11T16:56:49.877Z,94303.67
2018-11-11T16:59:20.124Z,94312.06
2018-11-11T17:01:50.781Z,94326.97
2018-11-11T17:04:20.533Z,94328.09
2018-11-11T17:06:50.964Z,94335.44
2018-11-11T17:09:21.889Z,94337.73
2018-11-11T17:11:52.186Z,94340.60
2018-11-11T17:14:23.523Z,94339.58
2018-11-11T17:16:54.837Z,94349.28
2018-11-11T17:19:25.919Z,94355.02
2018-11-11T17:21:55.902Z,94350.45
2018-11-11T17:24:26.933Z,94357.73
2018-11-11T17:27:00.222Z,94348.47
2018-11-11T17:29:31.688Z,94350.62
2018-11-11T17:32:02.585Z,94357.28
2018-11-11T17:34:33.653Z,94351.42
2018-11-11T17:37:04.948Z,94347.00
2018-11-11T17:39:36.337Z,94341.16
2018-11-11T17:42:06.589Z,94340.59
2018-11-11T17:44:36.829Z,94343.62
2018-11-11T17:47:07.556Z,94342.00
2018-11-11T17:49:39.205Z,94343.31
2018-11-11T17:52:09.086Z,94344.47
2018-11-11T17:54:38.992Z,94342.38
2018-11-11T17:57:08.455Z,94339.05
2018-11-11T17:59:38.694Z,94339.84
2018-11-11T18:02:08.627Z,94335.86
2018-11-11T18:04:38.616Z,94342.14
2018-11-11T18:07:08.265Z,94345.41
2018-11-11T18:09:38.060Z,94342.19
2018-11-11T18:12:10.008Z,94340.70
2018-11-11T18:14:39.594Z,94342.80
2018-11-11T18:17:09.947Z,94344.58
2018-11-11T18:19:39.422Z,94340.67
2018-11-11T18:22:10.111Z,94333.91
2018-11-11T18:24:40.356Z,94330.45
2018-11-11T18:27:11.575Z,94331.93
2018-11-11T18:29:43.028Z,94330.02
2018-11-11T18:32:13.144Z,94326.15
2018-11-11T18:34:43.788Z,94318.06
2018-11-11T18:37:13.759Z,94324.07
2018-11-11T18:39:44.720Z,94311.34
2018-11-11T18:42:14.883Z,94302.41
2018-11-11T18:44:46.540Z,94301.23
2018-11-11T18:47:17.062Z,94303.81
2018-11-11T18:49:47.502Z,94304.73
2018-11-11T18:52:17.236Z,94314.05
2018-11-11T18:54:46.929Z,94309.41
2018-11-11T18:57:17.230Z,94306.16
2018-11-11T18:59:49.365Z,94306.52
2018-11-11T19:02:20.127Z,94304.18
2018-11-11T19:04:51.550Z,94297.54
2018-11-11T19:07:21.649Z,94302.14
2018-11-11T19:09:54.220Z,94297.98
2018-11-11T19:12:25.549Z,94290.05
2018-11-11T19:14:55.979Z,94295.23
2018-11-11T19:17:28.413Z,94294.86
2018-11-11T19:20:00.142Z,94293.14
2018-11-11T19:22:31.763Z,94289.39
2018-11-11T19:25:02.573Z,94290.50
2018-11-11T19:27:34.868Z,94286.81
2018-11-11T19:30:06.143Z,94294.20
2018-11-11T19:32:35.998Z,94301.81
2018-11-11T19:35:06.444Z,94303.70
2018-11-11T19:37:35.832Z,94306.42
2018-11-11T19:40:06.044Z,94313.42
2018-11-11T19:42:36.082Z,94326.67
2018-11-11T19:45:07.441Z,94347.91
2018-11-11T19:47:37.799Z,94352.77
2018-11-11T19:50:08.353Z,94359.91
2018-11-11T19:52:38.262Z,94361.02
2018-11-11T19:55:10.144Z,94367.69
2018-11-11T19:57:41.547Z,94382.19
2018-11-11T20:07:03.804Z,94390.23
2018-11-11T20:09:34.820Z,94396.28
2018-11-11T20:12:04.735Z,94402.16
2018-11-11T20:14:34.946Z,94407.97
2018-11-11T20:17:05.772Z,94417.44
2018-11-11T20:19:35.752Z,94424.98
2018-11-11T20:22:05.583Z,94431.82
2018-11-11T20:24:35.010Z,94438.16
2018-11-11T20:27:04.754Z,94437.16
2018-11-11T20:29:34.821Z,94442.62
2018-11-11T20:32:05.343Z,94444.63
2018-11-11T20:34:35.515Z,94449.16
2018-11-11T20:37:09.507Z,94450.41
2018-11-11T20:39:39.721Z,94454.53
2018-11-11T20:42:09.636Z,94459.47
2018-11-11T20:44:39.497Z,94470.84
2018-11-11T20:47:09.054Z,94462.66
2018-11-11T20:49:40.144Z,94462.84
2018-11-11T20:52:09.535Z,94474.52
2018-11-11T20:54:39.110Z,94480.16
2018-11-11T20:57:10.384Z,94469.41
2018-11-11T20:59:40.917Z,94463.91
2018-11-11T21:02:10.274Z,94456.57
2018-11-11T21:04:40.623Z,94458.44
2018-11-11T21:07:10.189Z,94451.84
2018-11-11T21:09:40.413Z,94449.38
2018-11-11T21:12:10.080Z,94449.38
2018-11-11T21:14:39.721Z,94449.11
2018-11-11T21:17:09.305Z,94445.64
2018-11-11T21:19:38.980Z,94445.33
2018-11-11T21:22:12.619Z,94445.16
2018-11-11T21:24:42.768Z,94442.31
2018-11-11T21:27:12.239Z,94438.52
2018-11-11T21:29:41.757Z,94446.17
2018-11-11T21:32:12.579Z,94440.16
2018-11-11T21:34:42.682Z,94445.34
2018-11-11T21:37:12.315Z,94446.06
2018-11-11T21:39:42.064Z,94451.27
2018-11-11T21:42:12.909Z,94452.55
2018-11-11T21:44:42.491Z,94452.77
2018-11-11T21:47:11.938Z,94447.73
2018-11-11T21:49:41.458Z,94456.73
2018-11-11T21:52:10.917Z,94459.14
2018-11-11T21:54:40.524Z,94460.86
2018-11-11T21:57:09.929Z,94465.89
2018-11-11T21:59:39.528Z,94470.13
2018-11-11T22:02:09.262Z,94473.55
2018-11-11T22:04:38.683Z,94468.98
2018-11-11T22:07:08.248Z,94476.78
2018-11-11T22:09:38.436Z,94473.92
2018-11-11T22:12:07.851Z,94474.02
2018-11-11T22:14:37.288Z,94477.06
2018-11-11T22:17:07.894Z,94479.81
2018-11-11T22:19:38.282Z,94481.41
2018-11-11T22:22:08.726Z,94480.57
2018-11-11T22:24:37.912Z,94480.86
2018-11-11T22:27:07.804Z,94486.03
2018-11-11T22:29:37.288Z,94492.50
2018-11-11T22:32:06.723Z,94490.62
2018-11-11T22:34:36.229Z,94493.75
2018-11-11T22:37:05.847Z,94502.02
2018-11-11T22:39:35.576Z,94501.05
2018-11-11T22:42:04.857Z,94499.42
2018-11-11T22:44:34.248Z,94501.09
2018-11-11T22:47:03.791Z,94504.73
2018-11-11T22:49:33.325Z,94504.75
2018-11-11T22:52:02.685Z,94516.28
2018-11-11T22:54:32.140Z,94519.95
2018-11-11T22:57:01.579Z,94517.38
2018-11-11T22:59:31.818Z,94526.69
2018-11-11T23:02:01.223Z,94531.48
2018-11-11T23:04:30.633Z,94530.83
2018-11-11T23:07:02.685Z,94536.80
2018-11-11T23:09:31.907Z,94526.02
2018-11-11T23:12:01.288Z,94532.05
2018-11-11T23:14:30.508Z,94537.68
2018-11-11T23:16:59.783Z,94538.33
2018-11-11T23:19:29.228Z,94537.83
2018-11-11T23:21:58.960Z,94536.37
2018-11-11T23:24:28.397Z,94541.82
2018-11-11T23:26:57.890Z,94533.11
2018-11-11T23:29:27.328Z,94536.80
2018-11-11T23:31:56.769Z,94537.16
2018-11-11T23:34:26.132Z,94541.53
2018-11-11T23:36:55.542Z,94539.58
2018-11-11T23:39:25.808Z,94537.44
2018-11-11T23:41:56.060Z,94539.38
2018-11-11T23:44:25.269Z,94541.56
2018-11-11T23:46:54.769Z,94547.66
2018-11-11T23:49:24.376Z,94547.97
2018-11-11T23:51:54.736Z,94546.42
2018-11-11T23:54:24.068Z,94550.28
2018-11-11T23:56:53.389Z,94557.82
2018-11-11T23:59:22.808Z,94545.61
